Simms, Texas
Current Conditions -  °F | °C
As of 5:24 AM on Sunday 21 Dec 2014 (Local Time) from KTXK Reporting Station
Haze Haze  
Wind Chill: 32°   Ceiling: 5000
Heat Index: 37°   Visibility: 1.5mi
Dew Point: 36°   Wind: 6mph
Humidity: 96%   Direction: 50°NE
Pressure: 30.16"   Gusts: NA
Location:  33.35°N, 94.51°W
Report Text: KTXK 211124Z AUTO 05005KT 1 1/2SM BR OVC050 03/02 A3016 RMK AO2 T00280022
Loading
Personal Weather Stations






























Interactive Weather Map New forecast layout! Learn more

10-Day Weather Forecast

Advertisements
Track Severe Weather on mobile